Time;durP1;ratioP1;P1;durP2;ratioP2;P2;SDS_P1;SDS_P2;PMS_P1;PMS_P2;Temp;Humidity;BMP_temperature;BMP_pressure;BME280_temperature;BME280_humidity;BME280_pressure;Samples;Min_cycle;Max_cycle;Signal;HPM_P1;HPM_P2
2024/02/22 00:00:26;;;;;;;0.70;0.60;;;;;;;12.11;47.36;95929.69;4975297;28;20058;-79
2024/02/22 00:02:54;;;;;;;1.58;0.98;;;;;;;12.10;45.91;95931.50;4974313;28;20546;-79
2024/02/22 00:05:22;;;;;;;1.38;1.08;;;;;;;12.07;45.85;95916.25;4974581;28;20091;-79
2024/02/22 00:07:51;;;;;;;2.08;1.00;;;;;;;12.05;47.36;95917.47;4974883;28;20093;-79
2024/02/22 00:10:19;;;;;;;1.00;0.90;;;;;;;12.03;48.61;95893.34;4975005;28;20055;-79
2024/02/22 00:12:47;;;;;;;0.80;0.77;;;;;;;12.03;48.45;95895.97;4974558;28;20110;-79
2024/02/22 00:15:15;;;;;;;2.63;0.85;;;;;;;11.99;47.55;95872.03;4974510;28;20055;-79
2024/02/22 00:17:44;;;;;;;1.17;0.98;;;;;;;11.99;48.79;95860.78;4974615;28;20059;-79
2024/02/22 00:20:16;;;;;;;1.65;1.00;;;;;;;11.97;49.28;95876.66;4974539;28;20051;-79
2024/02/22 00:22:44;;;;;;;1.65;0.90;;;;;;;11.91;47.78;95864.41;4974757;28;20054;-79
2024/02/22 00:25:12;;;;;;;1.23;1.13;;;;;;;11.90;48.31;95858.41;4974050;28;20050;-79
2024/02/22 00:27:40;;;;;;;2.80;0.95;;;;;;;11.86;47.11;95853.78;4974187;28;20050;-80
2024/02/22 00:30:12;;;;;;;3.40;1.50;;;;;;;11.85;46.61;95844.31;4974506;28;20495;-79
2024/02/22 00:32:40;;;;;;;1.65;1.00;;;;;;;11.81;47.11;95825.66;4973719;28;20051;-76
2024/02/22 00:35:10;;;;;;;1.25;1.10;;;;;;;11.81;47.88;95828.25;4973570;28;20438;-77
2024/02/22 00:37:37;;;;;;;2.03;1.45;;;;;;;11.80;46.90;95821.41;4974262;28;20128;-77
2024/02/22 00:40:09;;;;;;;1.77;0.98;;;;;;;11.80;47.39;95803.13;4973716;28;20114;-77
2024/02/22 00:42:36;;;;;;;1.10;1.00;;;;;;;11.80;48.54;95797.91;4974069;28;20507;-76
2024/02/22 00:45:04;;;;;;;1.55;1.40;;;;;;;11.78;47.68;95797.31;4973460;28;20577;-76
2024/02/22 00:47:32;;;;;;;1.50;1.40;;;;;;;11.76;48.10;95791.50;4977275;28;20050;-77
2024/02/22 00:49:59;;;;;;;3.75;1.48;;;;;;;11.72;48.95;95766.81;4991883;28;20050;-77
2024/02/22 00:52:29;;;;;;;2.83;1.10;;;;;;;11.72;49.12;95772.03;4991368;28;20054;-77
2024/02/22 00:54:57;;;;;;;2.38;1.15;;;;;;;11.72;48.52;95757.16;4991009;28;20093;-77
2024/02/22 00:57:24;;;;;;;1.88;1.17;;;;;;;11.71;47.29;95749.53;4976003;28;20055;-77
2024/02/22 00:59:52;;;;;;;2.35;1.40;;;;;;;11.66;47.15;95751.97;4973909;28;20145;-77
2024/02/22 01:02:21;;;;;;;2.85;2.03;;;;;;;11.61;48.55;95743.94;4973770;28;20490;-76
2024/02/22 01:04:48;;;;;;;1.40;1.30;;;;;;;11.53;48.38;95735.34;4973561;28;20403;-76
2024/02/22 01:07:16;;;;;;;2.20;1.65;;;;;;;11.48;47.97;95745.63;4973499;28;20058;-76
2024/02/22 01:09:45;;;;;;;2.92;1.95;;;;;;;11.47;49.21;95727.53;4973606;28;20129;-76
2024/02/22 01:12:12;;;;;;;3.55;2.03;;;;;;;11.41;49.41;95717.94;4973563;28;20140;-77
2024/02/22 01:14:40;;;;;;;5.20;1.90;;;;;;;11.39;48.93;95726.00;4973033;28;20050;-76
2024/02/22 01:17:07;;;;;;;2.72;1.85;;;;;;;11.40;50.20;95724.97;4972781;28;20053;-77
2024/02/22 01:19:35;;;;;;;1.95;1.52;;;;;;;11.41;50.25;95718.72;4973604;28;20059;-77
2024/02/22 01:22:04;;;;;;;3.05;1.38;;;;;;;11.40;49.43;95713.72;4972992;28;20046;-76
2024/02/22 01:24:31;;;;;;;2.00;1.40;;;;;;;11.39;49.52;95705.09;4972962;28;20055;-77
2024/02/22 01:27:00;;;;;;;2.22;1.30;;;;;;;11.37;49.38;95707.13;4973661;28;20134;-76
2024/02/22 01:29:28;;;;;;;2.97;1.92;;;;;;;11.36;49.37;95702.09;4973433;28;20109;-77
2024/02/22 01:31:55;;;;;;;3.83;1.80;;;;;;;11.37;50.05;95696.66;4973155;28;20055;-77
2024/02/22 01:34:23;;;;;;;4.00;1.90;;;;;;;11.36;51.83;95697.66;4973429;28;20106;-77
2024/02/22 01:36:51;;;;;;;1.90;1.50;;;;;;;11.34;51.54;95691.84;4974082;28;20130;-77
2024/02/22 01:39:19;;;;;;;2.53;1.73;;;;;;;11.34;51.10;95690.03;4973780;28;20051;-77
2024/02/22 01:41:46;;;;;;;1.83;1.33;;;;;;;11.35;51.88;95688.25;4973291;28;20050;-77
2024/02/22 01:44:15;;;;;;;1.50;1.30;;;;;;;11.37;52.42;95686.22;4978208;28;20070;-76
2024/02/22 01:46:43;;;;;;;2.17;1.30;;;;;;;11.38;54.33;95693.03;4994950;28;20046;-76
2024/02/22 01:49:11;;;;;;;4.18;1.77;;;;;;;11.38;52.25;95693.03;4994803;28;20054;-77
2024/02/22 01:51:39;;;;;;;2.22;1.60;;;;;;;11.36;54.61;95682.00;4987135;28;20101;-77
2024/02/22 01:54:06;;;;;;;2.33;1.23;;;;;;;11.36;53.90;95687.22;4974794;28;20057;-77
2024/02/22 01:56:34;;;;;;;0.88;0.88;;;;;;;11.37;52.82;95675.78;4973811;28;20050;-76
2024/02/22 01:59:02;;;;;;;1.23;0.93;;;;;;;11.39;53.71;95686.00;4973755;28;20086;-76
2024/02/22 02:01:32;;;;;;;2.08;1.10;;;;;;;11.41;54.85;95679.56;4972928;28;20051;-76
2024/02/22 02:04:00;;;;;;;3.28;1.02;;;;;;;11.44;53.14;95667.91;4972929;28;20101;-77
2024/02/22 02:06:28;;;;;;;3.05;1.33;;;;;;;11.42;53.48;95662.88;4972957;28;20050;-77
2024/02/22 02:08:56;;;;;;;2.05;1.35;;;;;;;11.43;54.56;95668.91;4973718;28;20082;-77
2024/02/22 02:11:23;;;;;;;2.47;1.20;;;;;;;11.45;55.70;95661.66;4973052;28;20078;-76
2024/02/22 02:13:51;;;;;;;1.75;1.08;;;;;;;11.46;55.64;95658.06;4972620;28;20073;-77
2024/02/22 02:16:19;;;;;;;1.63;1.25;;;;;;;11.43;54.46;95651.41;4972716;28;20055;-77
2024/02/22 02:18:48;;;;;;;1.85;1.20;;;;;;;11.42;54.22;95647.22;4972748;28;20051;-77
2024/02/22 02:21:24;;;;;;;1.42;1.10;;;;;;;11.40;55.10;95633.56;4972986;28;20058;-77
2024/02/22 02:24:07;;;;;;;2.17;1.20;;;;;;;11.39;54.97;95634.59;4972633;28;20511;-77
2024/02/22 02:26:36;;;;;;;4.00;1.05;;;;;;;11.39;54.63;95626.75;4972788;28;20081;-76
2024/02/22 02:29:03;;;;;;;1.90;1.00;;;;;;;11.38;55.12;95621.75;4976078;28;20138;-76
2024/02/22 02:31:31;;;;;;;1.88;1.10;;;;;;;11.37;57.01;95610.50;4976081;28;20046;-76
2024/02/22 02:33:59;;;;;;;1.67;1.17;;;;;;;11.39;57.26;95605.88;4976275;28;20057;-76
2024/02/22 02:36:27;;;;;;;2.15;1.17;;;;;;;11.38;59.58;95604.25;4975976;28;20066;-77
2024/02/22 02:38:54;;;;;;;3.22;1.17;;;;;;;11.37;57.72;95596.63;4976065;28;20050;-76
2024/02/22 02:41:22;;;;;;;1.90;1.27;;;;;;;11.32;57.71;95594.66;4975020;28;20050;-76
2024/02/22 02:43:51;;;;;;;2.55;1.30;;;;;;;11.25;57.77;95584.25;4956316;28;20054;-77
2024/02/22 02:46:18;;;;;;;2.35;1.48;;;;;;;11.21;57.67;95577.84;4956112;29;20054;-77
2024/02/22 02:48:46;;;;;;;1.92;1.17;;;;;;;11.20;58.73;95570.25;4956181;29;20055;-76
2024/02/22 02:51:13;;;;;;;2.60;1.35;;;;;;;11.15;58.57;95573.50;4955977;29;20074;-76
2024/02/22 02:53:42;;;;;;;3.15;1.42;;;;;;;11.11;60.95;95573.09;4954241;29;20527;-77
2024/02/22 02:56:10;;;;;;;2.25;1.48;;;;;;;11.10;60.92;95571.50;4955711;29;20044;-77
2024/02/22 02:58:38;;;;;;;2.65;1.50;;;;;;;11.09;60.66;95569.13;4954977;29;20063;-76
2024/02/22 03:01:07;;;;;;;3.15;1.52;;;;;;;11.05;62.55;95573.16;4955014;29;20134;-77
2024/02/22 03:03:35;;;;;;;6.10;1.80;;;;;;;11.00;61.16;95570.34;4970353;28;20105;-77
2024/02/22 03:06:02;;;;;;;2.22;1.42;;;;;;;10.96;62.63;95580.41;4973495;28;20142;-76
2024/02/22 03:08:30;;;;;;;2.67;1.35;;;;;;;10.98;63.36;95567.16;4974507;28;20113;-76
2024/02/22 03:10:58;;;;;;;3.20;1.75;;;;;;;10.97;63.97;95555.91;4974908;28;20065;-77
2024/02/22 03:13:26;;;;;;;2.15;1.00;;;;;;;10.91;63.19;95546.31;4975156;28;20747;-76
2024/02/22 03:15:53;;;;;;;2.88;1.30;;;;;;;10.83;63.15;95554.41;4974796;28;20559;-77
2024/02/22 03:18:22;;;;;;;1.77;1.27;;;;;;;10.78;63.43;95556.81;4974669;28;20082;-77
2024/02/22 03:20:50;;;;;;;1.77;1.27;;;;;;;10.76;64.00;95558.81;4973624;28;20061;-76
2024/02/22 03:23:18;;;;;;;1.80;1.20;;;;;;;10.78;65.42;95546.38;4973258;28;20051;-76
2024/02/22 03:25:45;;;;;;;1.27;1.17;;;;;;;10.78;65.51;95551.59;4953406;29;20500;-76
2024/02/22 03:28:14;;;;;;;2.80;1.73;;;;;;;10.78;65.60;95549.00;4953778;29;20043;-76
2024/02/22 03:30:42;;;;;;;1.30;0.93;;;;;;;10.74;65.52;95555.66;4954243;29;20047;-76
2024/02/22 03:33:10;;;;;;;1.70;1.00;;;;;;;10.74;66.71;95543.41;4953379;29;20507;-76
2024/02/22 03:35:38;;;;;;;2.58;1.42;;;;;;;10.75;67.41;95547.59;4954851;29;20050;-76
2024/02/22 03:38:06;;;;;;;1.83;1.08;;;;;;;10.74;67.21;95542.63;4955011;28;20044;-77
2024/02/22 03:40:34;;;;;;;0.95;0.82;;;;;;;10.70;66.53;95537.78;4955736;29;20448;-76
2024/02/22 03:43:01;;;;;;;4.07;1.88;;;;;;;10.66;66.99;95534.00;4955567;29;20048;-77
2024/02/22 03:45:29;;;;;;;1.35;1.00;;;;;;;10.58;66.96;95536.84;4955286;29;20108;-77
2024/02/22 03:47:57;;;;;;;5.30;1.60;;;;;;;10.54;68.45;95524.44;4955578;29;20122;-76
2024/02/22 03:50:24;;;;;;;2.13;1.05;;;;;;;10.48;68.86;95520.84;4955678;29;20062;-76
2024/02/22 03:52:54;;;;;;;2.05;1.10;;;;;;;10.46;69.74;95512.44;4955178;29;20134;-76
2024/02/22 03:55:22;;;;;;;1.70;1.02;;;;;;;10.42;68.51;95501.63;4955675;29;20070;-77
2024/02/22 03:57:49;;;;;;;2.95;1.23;;;;;;;10.35;68.95;95506.06;4955091;29;20106;-77
2024/02/22 04:00:17;;;;;;;1.40;0.98;;;;;;;10.28;68.86;95500.84;4954995;29;20134;-76
2024/02/22 04:02:46;;;;;;;5.93;1.30;;;;;;;10.23;68.90;95492.84;4955086;29;20134;-76
2024/02/22 04:05:15;;;;;;;2.88;1.67;;;;;;;10.19;68.82;95485.63;4969521;28;20054;-76
2024/02/22 04:07:43;;;;;;;2.00;1.40;;;;;;;10.13;69.00;95489.88;4975575;28;20047;-77
2024/02/22 04:10:12;;;;;;;1.45;1.30;;;;;;;10.10;69.62;95482.47;4974109;28;20093;-77
2024/02/22 04:12:40;;;;;;;3.15;1.92;;;;;;;10.09;70.66;95486.09;4974020;28;20426;-77
2024/02/22 04:15:08;;;;;;;3.88;1.58;;;;;;;10.09;71.11;95483.47;4974080;28;20134;-77
2024/02/22 04:17:38;;;;;;;3.53;1.35;;;;;;;10.14;71.76;95478.44;4974208;28;20125;-76
2024/02/22 04:20:07;;;;;;;3.85;1.90;;;;;;;10.14;70.60;95485.47;4973962;28;20049;-77
2024/02/22 04:22:47;;;;;;;1.67;1.33;;;;;;;10.15;71.69;95479.25;4973876;28;20064;-77
2024/02/22 04:25:16;;;;;;;1.85;1.38;;;;;;;10.17;71.63;95475.44;4973763;28;20058;-76
2024/02/22 04:27:44;;;;;;;4.70;1.52;;;;;;;10.16;71.63;95463.41;4973982;28;20055;-77
2024/02/22 04:30:13;;;;;;;1.92;1.30;;;;;;;10.16;71.12;95471.22;4974136;28;20137;-76
2024/02/22 04:32:41;;;;;;;4.47;1.77;;;;;;;10.18;71.88;95463.19;4973808;28;20082;-76
2024/02/22 04:35:10;;;;;;;2.33;1.20;;;;;;;10.21;72.26;95462.78;4974020;28;20471;-77
2024/02/22 04:37:38;;;;;;;1.80;0.95;;;;;;;10.21;71.34;95468.81;4973448;28;20054;-77
2024/02/22 04:40:08;;;;;;;1.83;1.23;;;;;;;10.21;71.96;95454.97;4974067;28;20113;-76
2024/02/22 04:42:38;;;;;;;3.17;1.05;;;;;;;10.18;71.27;95448.34;4973824;28;20061;-76
2024/02/22 04:45:06;;;;;;;2.08;1.20;;;;;;;10.15;71.68;95448.78;4973443;28;20058;-76
2024/02/22 04:47:36;;;;;;;1.98;1.17;;;;;;;10.14;72.41;95447.16;4973702;28;20055;-76
2024/02/22 04:50:05;;;;;;;2.40;1.42;;;;;;;10.15;72.34;95448.78;4972779;28;20055;-76
2024/02/22 04:52:33;;;;;;;0.85;0.85;;;;;;;10.15;71.98;95440.97;4973664;28;20055;-77
2024/02/22 04:55:03;;;;;;;3.83;1.00;;;;;;;10.17;71.57;95431.13;4973525;28;20122;-76
2024/02/22 04:57:31;;;;;;;1.63;1.05;;;;;;;10.18;71.67;95437.13;4973421;28;20530;-76
2024/02/22 05:00:00;;;;;;;2.22;0.70;;;;;;;10.18;72.24;95437.13;4973352;28;20415;-77
2024/02/22 05:02:28;;;;;;;1.10;0.82;;;;;;;10.18;72.42;95430.13;4973908;28;20051;-76
2024/02/22 05:04:56;;;;;;;1.35;0.90;;;;;;;10.18;73.17;95431.94;4973912;28;20146;-76
2024/02/22 05:07:23;;;;;;;1.65;0.68;;;;;;;10.20;72.88;95428.09;4974100;28;20043;-76
2024/02/22 05:09:51;;;;;;;0.80;0.70;;;;;;;10.21;72.23;95421.91;4973626;28;20518;-77
2024/02/22 05:12:18;;;;;;;0.88;0.60;;;;;;;10.23;72.63;95419.06;4973635;28;20467;-77
2024/02/22 05:14:46;;;;;;;0.80;0.80;;;;;;;10.24;72.70;95420.69;4973273;28;20051;-76
2024/02/22 05:17:16;;;;;;;1.13;0.80;;;;;;;10.23;72.49;95409.47;4973315;28;20514;-76
2024/02/22 05:19:44;;;;;;;5.35;1.27;;;;;;;10.24;72.74;95407.66;4973211;28;20503;-77
2024/02/22 05:22:12;;;;;;;1.30;1.00;;;;;;;10.25;73.45;95409.22;4977293;28;20421;-77
2024/02/22 05:24:40;;;;;;;1.45;0.88;;;;;;;10.26;73.04;95411.63;4972929;28;20510;-76
2024/02/22 05:27:09;;;;;;;0.60;0.60;;;;;;;10.26;71.83;95408.25;4973168;28;20491;-77
2024/02/22 05:29:37;;;;;;;0.88;0.80;;;;;;;10.20;71.27;95404.66;4973375;28;20082;-77
2024/02/22 05:32:05;;;;;;;1.90;1.10;;;;;;;10.15;72.61;95388.84;4973119;28;20137;-77
2024/02/22 05:34:35;;;;;;;3.17;1.20;;;;;;;10.17;72.32;95394.66;4973334;28;20087;-77
2024/02/22 05:37:08;;;;;;;1.42;1.00;;;;;;;10.16;72.47;95381.81;4973637;28;20061;-76
2024/02/22 05:39:35;;;;;;;0.73;0.60;;;;;;;10.13;72.06;95377.84;4973473;28;20051;-77
2024/02/22 05:42:03;;;;;;;1.17;0.70;;;;;;;10.08;71.90;95378.47;4973086;28;20046;-76
2024/02/22 05:44:31;;;;;;;1.58;0.93;;;;;;;10.04;72.11;95373.88;4972815;28;20058;-77
2024/02/22 05:46:59;;;;;;;0.70;0.70;;;;;;;10.05;72.93;95365.84;4973413;28;20054;-76
2024/02/22 05:49:27;;;;;;;0.85;0.82;;;;;;;10.08;72.34;95364.66;4975723;28;20057;-76
2024/02/22 05:51:56;;;;;;;0.70;0.68;;;;;;;10.06;72.83;95356.22;4991947;28;20055;-78
2024/02/22 05:54:23;;;;;;;0.80;0.80;;;;;;;10.03;72.57;95364.44;4991364;28;20122;-77
2024/02/22 05:56:51;;;;;;;3.13;1.25;;;;;;;10.03;73.06;95354.03;4985379;28;20088;-77
2024/02/22 05:59:18;;;;;;;1.90;1.10;;;;;;;10.05;73.58;95354.63;4976134;28;20054;-76
2024/02/22 06:01:46;;;;;;;1.05;0.80;;;;;;;10.07;74.28;95347.41;4975016;28;20050;-75
2024/02/22 06:04:14;;;;;;;1.15;1.05;;;;;;;10.09;74.30;95351.38;4976904;28;20050;-76
2024/02/22 06:06:42;;;;;;;1.48;0.80;;;;;;;10.08;73.31;95344.59;4995652;28;20043;-77
2024/02/22 06:09:10;;;;;;;2.05;1.38;;;;;;;10.07;74.79;95350.78;4997912;28;20026;-76
2024/02/22 06:11:39;;;;;;;0.77;0.70;;;;;;;10.07;73.80;95342.97;4997440;28;20057;-76
2024/02/22 06:14:08;;;;;;;2.55;0.82;;;;;;;10.03;73.57;95351.44;4984915;28;20055;-76
2024/02/22 06:16:36;;;;;;;1.20;1.08;;;;;;;10.01;73.12;95343.81;4977700;28;20055;-76
2024/02/22 06:19:04;;;;;;;0.75;0.75;;;;;;;10.00;73.10;95342.22;4977316;28;20054;-76
2024/02/22 06:21:32;;;;;;;2.38;0.90;;;;;;;10.01;73.31;95343.81;4976761;28;20062;-76
2024/02/22 06:23:59;;;;;;;1.08;0.90;;;;;;;10.03;73.64;95348.81;4977014;28;20050;-79
2024/02/22 06:26:33;;;;;;;0.73;0.70;;;;;;;10.01;73.91;95343.00;4976185;28;20138;-81
2024/02/22 06:29:01;;;;;;;2.72;1.33;;;;;;;9.95;73.58;95336.03;4975529;28;20046;-80
2024/02/22 06:31:28;;;;;;;2.00;1.15;;;;;;;9.93;73.98;95328.44;4977687;28;20050;-79
2024/02/22 06:33:56;;;;;;;3.22;0.70;;;;;;;9.93;74.12;95325.84;4977328;28;20086;-81
2024/02/22 06:36:24;;;;;;;0.77;0.70;;;;;;;9.95;74.51;95333.41;4977596;28;20060;-79
2024/02/22 06:38:51;;;;;;;1.00;0.90;;;;;;;9.94;74.04;95326.63;4976437;28;20097;-79
2024/02/22 06:41:19;;;;;;;1.42;0.68;;;;;;;9.86;73.62;95325.88;4976779;28;20084;-80
2024/02/22 06:43:48;;;;;;;1.02;0.75;;;;;;;9.80;74.66;95328.50;4969946;28;20114;-80
2024/02/22 06:46:17;;;;;;;1.00;0.77;;;;;;;9.78;73.94;95317.50;4965207;28;20495;-81
2024/02/22 06:48:45;;;;;;;2.45;1.40;;;;;;;9.76;73.98;95319.50;4968650;28;20568;-81
2024/02/22 06:51:13;;;;;;;0.70;0.70;;;;;;;9.70;73.87;95310.72;4959176;23;20052;-87
2024/02/22 06:53:41;;;;;;;2.20;1.13;;;;;;;9.69;74.44;95314.34;4923257;29;20059;-88
2024/02/22 06:56:08;;;;;;;1.35;0.80;;;;;;;9.67;74.45;95300.72;4909270;29;20119;-84
2024/02/22 06:58:36;;;;;;;1.60;0.98;;;;;;;9.66;75.10;95299.94;4921025;29;20056;-86
2024/02/22 07:01:05;;;;;;;1.00;0.90;;;;;;;9.68;75.52;95302.31;4905202;29;20482;-85
2024/02/22 07:03:33;;;;;;;2.05;0.93;;;;;;;9.69;74.82;95293.50;4901395;29;20072;-89
2024/02/22 07:06:01;;;;;;;0.70;0.70;;;;;;;9.75;75.15;95295.28;4905476;29;20075;-89
2024/02/22 07:08:29;;;;;;;1.95;0.80;;;;;;;9.81;75.71;95291.03;4906259;29;20084;-85
2024/02/22 07:10:57;;;;;;;1.33;0.52;;;;;;;9.81;74.91;95293.63;4907972;29;20079;-84
2024/02/22 07:13:24;;;;;;;2.03;0.80;;;;;;;9.79;75.61;95288.63;4904325;29;20045;-86
2024/02/22 07:15:52;;;;;;;0.77;0.75;;;;;;;9.79;75.02;95282.63;4888650;29;20120;-84
2024/02/22 07:18:21;;;;;;;0.80;0.80;;;;;;;9.77;75.88;95280.22;4890716;29;20057;-81
2024/02/22 07:20:49;;;;;;;1.17;1.08;;;;;;;9.78;75.57;95270.63;4888675;29;20057;-86
2024/02/22 07:23:17;;;;;;;0.65;0.50;;;;;;;9.75;75.35;95271.84;4900665;29;20087;-86
2024/02/22 07:25:45;;;;;;;0.77;0.73;;;;;;;9.77;75.54;95267.19;4906230;29;20052;-82
2024/02/22 07:28:14;;;;;;;0.90;0.68;;;;;;;9.77;75.53;95269.81;4904754;29;20059;-83
2024/02/22 07:30:42;;;;;;;0.68;0.63;;;;;;;9.78;76.36;95266.22;4899929;29;20132;-87
2024/02/22 07:33:10;;;;;;;0.50;0.50;;;;;;;9.79;75.92;95273.00;4899302;29;20055;-85
2024/02/22 07:35:39;;;;;;;0.40;0.40;;;;;;;9.78;75.57;95263.59;4906840;29;20112;-89
2024/02/22 07:38:07;;;;;;;0.57;0.45;;;;;;;9.76;74.94;95265.63;4892419;29;20056;-88
2024/02/22 07:40:35;;;;;;;0.70;0.57;;;;;;;9.78;75.60;95268.81;4900089;29;20078;-85
2024/02/22 07:43:02;;;;;;;2.05;0.40;;;;;;;9.84;75.31;95264.59;4889470;29;20116;-86
2024/02/22 07:45:30;;;;;;;1.05;0.43;;;;;;;9.88;75.14;95263.97;4902975;29;20052;-84
2024/02/22 07:47:58;;;;;;;2.13;0.60;;;;;;;9.86;74.96;95263.38;4907302;29;20056;-90
2024/02/22 07:50:28;;;;;;;0.60;0.40;;;;;;;9.85;75.00;95256.53;4906566;29;20052;-86
2024/02/22 07:52:57;;;;;;;0.60;0.60;;;;;;;9.87;75.74;95266.75;4907899;29;20056;-84
2024/02/22 07:55:24;;;;;;;0.98;0.63;;;;;;;9.88;75.82;95247.50;4906817;29;20560;-85
2024/02/22 07:57:53;;;;;;;1.10;0.43;;;;;;;9.92;75.56;95253.09;4907334;29;20052;-85
2024/02/22 08:00:20;;;;;;;1.00;0.40;;;;;;;9.93;76.03;95250.28;4898981;29;20105;-81
2024/02/22 08:02:48;;;;;;;0.50;0.50;;;;;;;9.97;75.89;95258.47;4889220;29;20057;-85
2024/02/22 08:05:17;;;;;;;0.80;0.38;;;;;;;9.97;75.30;95246.28;4905138;29;20088;-88
2024/02/22 08:07:45;;;;;;;1.73;0.82;;;;;;;9.99;75.50;95240.81;4892370;29;20096;-86
2024/02/22 08:10:18;;;;;;;0.30;0.30;;;;;;;10.00;75.40;95247.66;4897315;29;20482;-83
2024/02/22 08:12:45;;;;;;;0.65;0.52;;;;;;;9.97;75.35;95235.84;4888469;29;20112;-85
2024/02/22 08:15:13;;;;;;;0.45;0.35;;;;;;;10.00;75.95;95242.44;4888722;29;20446;-89
2024/02/22 08:17:41;;;;;;;0.40;0.40;;;;;;;10.02;76.48;95241.22;4906782;29;20049;-88
2024/02/22 08:20:11;;;;;;;0.47;0.20;;;;;;;10.05;75.74;95237.38;4904524;29;20052;-84
2024/02/22 08:22:39;;;;;;;2.70;0.30;;;;;;;10.02;75.04;95232.59;4906150;29;20091;-81
2024/02/22 08:25:07;;;;;;;0.32;0.22;;;;;;;10.00;75.46;95230.19;4905755;29;20052;-84
2024/02/22 08:27:36;;;;;;;0.77;0.40;;;;;;;10.00;75.47;95232.00;4904785;29;20104;-86
2024/02/22 08:30:20;;;;;;;0.98;0.43;;;;;;;9.98;75.06;95231.44;4897166;29;20048;-82
2024/02/22 08:32:48;;;;;;;0.30;0.30;;;;;;;9.93;74.93;95231.25;4886925;29;20076;-87
2024/02/22 08:35:16;;;;;;;0.50;0.30;;;;;;;9.84;75.03;95228.91;4888051;29;20089;-89
2024/02/22 08:37:43;;;;;;;0.70;0.20;;;;;;;9.82;75.29;95225.72;4890207;29;20148;-87
2024/02/22 08:40:12;;;;;;;0.60;0.30;;;;;;;9.84;76.27;95215.91;4893325;29;20051;-88
2024/02/22 08:43:01;;;;;;;0.22;0.22;;;;;;;9.86;75.84;95216.47;4898550;29;20478;-90
2024/02/22 08:45:29;;;;;;;0.52;0.30;;;;;;;9.85;75.62;95219.28;4897561;29;20052;-85
2024/02/22 08:47:56;;;;;;;0.80;0.52;;;;;;;9.87;76.35;95214.66;4905154;29;20517;-85
2024/02/22 08:50:24;;;;;;;0.98;0.30;;;;;;;9.88;75.92;95214.47;4905289;29;20668;-86
2024/02/22 08:52:52;;;;;;;0.40;0.38;;;;;;;9.86;75.64;95211.28;4903869;29;20056;-86
2024/02/22 08:55:20;;;;;;;0.63;0.30;;;;;;;9.85;76.06;95204.44;4905660;29;20048;-90
2024/02/22 08:57:48;;;;;;;1.90;0.30;;;;;;;9.88;75.56;95211.88;4904835;29;20052;-84
2024/02/22 09:00:22;;;;;;;0.50;0.25;;;;;;;9.89;76.84;95199.63;4902017;29;20112;-85
2024/02/22 09:02:51;;;;;;;2.65;0.30;;;;;;;9.92;76.06;95203.63;4901141;29;20052;-82
2024/02/22 09:05:19;;;;;;;1.02;0.52;;;;;;;9.91;75.81;95202.81;4899576;29;20052;-84
2024/02/22 09:07:49;;;;;;;0.30;0.30;;;;;;;9.92;76.44;95190.59;4903744;29;20171;-86
2024/02/22 09:10:17;;;;;;;0.40;0.32;;;;;;;9.95;76.09;95187.56;4893940;29;20049;-82
2024/02/22 09:12:45;;;;;;;0.63;0.63;;;;;;;9.95;76.93;95192.75;4899718;29;20460;-83
2024/02/22 09:15:14;;;;;;;0.73;0.73;;;;;;;9.94;77.22;95189.38;4888249;29;20053;-80
2024/02/22 09:17:43;;;;;;;0.22;0.20;;;;;;;9.96;76.48;95186.56;4898890;29;20121;-84
2024/02/22 09:20:12;;;;;;;0.95;0.43;;;;;;;9.96;77.22;95178.75;4886229;29;20060;-84
2024/02/22 09:22:40;;;;;;;0.65;0.40;;;;;;;9.97;76.08;95177.72;4885567;29;20129;-88
2024/02/22 09:25:09;;;;;;;0.90;0.57;;;;;;;9.99;76.63;95162.69;4894339;29;20057;-85
2024/02/22 09:27:37;;;;;;;1.17;0.40;;;;;;;10.02;76.71;95177.91;4904061;29;20127;-86
2024/02/22 09:30:06;;;;;;;0.20;0.20;;;;;;;10.03;76.81;95164.63;4901610;29;20104;-88
2024/02/22 09:32:34;;;;;;;2.92;0.75;;;;;;;10.07;77.00;95154.59;4889859;29;20053;-89
2024/02/22 09:35:03;;;;;;;0.77;0.60;;;;;;;10.12;77.64;95162.56;4889442;29;20211;-82
2024/02/22 09:37:31;;;;;;;0.93;0.47;;;;;;;10.13;77.40;95161.56;4907353;29;20049;-84
2024/02/22 09:39:58;;;;;;;0.40;0.30;;;;;;;10.16;77.21;95163.72;4901898;29;20048;-86
2024/02/22 09:42:27;;;;;;;0.17;0.17;;;;;;;10.18;77.06;95161.72;4893289;29;20105;-84
2024/02/22 09:44:56;;;;;;;0.47;0.20;;;;;;;10.20;76.90;95159.69;4900226;29;20080;-85
2024/02/22 09:47:24;;;;;;;1.85;0.30;;;;;;;10.22;76.53;95152.47;4903617;29;20474;-86
2024/02/22 09:49:53;;;;;;;0.20;0.20;;;;;;;10.24;76.37;95137.41;4891148;29;20055;-88
2024/02/22 09:52:22;;;;;;;0.40;0.30;;;;;;;10.23;76.92;95127.19;4894587;29;20053;-87
2024/02/22 09:54:50;;;;;;;0.25;0.20;;;;;;;10.23;77.00;95125.41;4908750;29;20052;-87
2024/02/22 09:57:18;;;;;;;0.75;0.38;;;;;;;10.25;76.92;95109.53;4910231;29;20051;-89
2024/02/22 09:59:50;;;;;;;0.70;0.40;;;;;;;10.29;76.59;95108.13;4909826;29;20053;-83
2024/02/22 10:02:18;;;;;;;0.47;0.22;;;;;;;10.30;76.56;95123.53;4911541;29;20428;-89
2024/02/22 10:04:52;;;;;;;0.52;0.40;;;;;;;10.30;76.10;95115.72;4904387;29;20060;-86
2024/02/22 10:07:25;;;;;;;0.10;0.10;;;;;;;10.29;76.43;95111.50;4892536;29;20573;-83
2024/02/22 10:09:53;;;;;;;0.25;0.25;;;;;;;10.29;75.78;95124.53;4891498;29;20496;-88
2024/02/22 10:12:30;;;;;;;0.20;0.20;;;;;;;10.28;76.34;95125.53;4890941;29;20159;-87
2024/02/22 10:14:59;;;;;;;0.35;0.30;;;;;;;10.31;76.89;95125.13;4905972;29;20049;-86
2024/02/22 10:17:30;;;;;;;0.47;0.20;;;;;;;10.32;76.37;95110.31;4907654;29;20072;-89
2024/02/22 10:19:59;;;;;;;2.90;0.40;;;;;;;10.30;76.36;95104.50;4901736;29;20041;-85
2024/02/22 10:22:29;;;;;;;0.40;0.20;;;;;;;10.30;77.32;95092.28;4906411;29;20052;-88
2024/02/22 10:25:08;;;;;;;1.38;0.13;;;;;;;10.33;77.85;95077.22;4908084;29;20052;-88
2024/02/22 10:27:37;;;;;;;0.47;0.30;;;;;;;10.35;77.27;95078.59;4908473;29;20528;-84
2024/02/22 10:30:09;;;;;;;1.00;0.20;;;;;;;10.36;76.37;95095.00;4909478;29;20048;-85
2024/02/22 10:32:38;;;;;;;0.20;0.20;;;;;;;10.37;76.44;95094.03;4893799;29;20116;-86
2024/02/22 10:35:07;;;;;;;0.50;0.35;;;;;;;10.43;76.66;95095.72;4907452;29;20079;-86
2024/02/22 10:37:36;;;;;;;0.40;0.30;;;;;;;10.46;76.03;95095.31;4900496;29;20056;-85
2024/02/22 10:40:08;;;;;;;0.10;0.10;;;;;;;10.48;76.09;95064.63;4894330;29;20422;-89
2024/02/22 10:42:37;;;;;;;0.75;0.10;;;;;;;10.54;75.83;95068.13;4897523;29;20060;-85
2024/02/22 10:45:06;;;;;;;0.30;0.20;;;;;;;10.62;75.87;95073.06;4909068;29;20131;-86
2024/02/22 10:47:36;;;;;;;0.20;0.20;;;;;;;10.74;76.28;95065.31;4892464;29;20057;-82
2024/02/22 10:50:06;;;;;;;0.25;0.25;;;;;;;10.85;76.75;95061.97;4901607;29;20505;-85
2024/02/22 10:52:39;;;;;;;0.30;0.30;;;;;;;10.98;75.43;95066.22;4911055;29;20080;-84
2024/02/22 10:55:13;;;;;;;0.38;0.38;;;;;;;11.06;75.78;95052.81;4891418;29;20057;-86
2024/02/22 10:57:44;;;;;;;0.40;0.25;;;;;;;11.13;75.76;95051.72;4891825;29;20048;-85
2024/02/22 11:00:14;;;;;;;0.63;0.25;;;;;;;11.19;75.96;95041.41;4889750;29;20053;-84
2024/02/22 11:02:44;;;;;;;0.70;0.20;;;;;;;11.29;75.12;95046.88;4907175;29;20053;-83
2024/02/22 11:05:13;;;;;;;0.35;0.35;;;;;;;11.33;73.80;95035.75;4908105;29;20052;-85
2024/02/22 11:07:50;;;;;;;0.30;0.15;;;;;;;11.34;72.97;95033.94;4907822;29;20104;-83
2024/02/22 11:10:18;;;;;;;0.10;0.10;;;;;;;11.36;72.70;95031.91;4899606;29;20053;-85
2024/02/22 11:12:47;;;;;;;0.63;0.43;;;;;;;11.36;72.86;95026.69;4889807;29;20052;-81
2024/02/22 11:15:15;;;;;;;0.50;0.20;;;;;;;11.37;72.58;95014.41;4900576;29;20057;-85
2024/02/22 11:17:52;;;;;;;0.40;0.40;;;;;;;11.36;73.35;95016.25;4887486;29;20474;-88
2024/02/22 11:20:31;;;;;;;0.30;0.30;;;;;;;11.37;72.51;95017.03;4885979;29;20069;-91
2024/02/22 11:23:11;;;;;;;2.28;0.20;;;;;;;11.37;72.70;95017.03;4885698;29;20061;-83
2024/02/22 11:25:40;;;;;;;0.22;0.22;;;;;;;11.40;73.48;95006.16;4885753;29;20068;-91
2024/02/22 11:28:10;;;;;;;0.17;0.15;;;;;;;11.45;74.44;95004.44;4884893;29;20131;-90
2024/02/22 11:30:44;;;;;;;0.17;0.17;;;;;;;11.53;73.15;95000.72;4885345;29;20430;-86
2024/02/22 11:33:12;;;;;;;1.95;0.20;;;;;;;11.55;73.59;94986.41;4884613;29;20049;-91
2024/02/22 11:35:41;;;;;;;0.15;0.10;;;;;;;11.51;73.72;94982.66;4886066;29;20089;-84
2024/02/22 11:38:10;;;;;;;0.20;0.10;;;;;;;11.48;74.24;94980.50;4885414;29;20117;-89
2024/02/22 11:40:41;;;;;;;0.15;0.15;;;;;;;11.48;73.61;94967.44;4886609;29;20052;-90